메인 페이지
METAR-TAF:

METAR-TAF

공항 :

산후안, 푸에르토리코, 미국

위도: 18-27N, 경도: 066-00W, 고도: 3m

현재 날씨관측

예보는 9분 전, 04:56시(UTC)에 발표되었습니다.
동남동4kt
온도 25°C
습도 83%
기압 1017 hPa
시정: 16.1km
고도 2400ft 상공 구름 조금
고도 4300ft 상공 구름 조금

METAR: TJSJ 250456Z 12004KT 10SM FEW024 FEW043 25/22 A3003 RMK AO2 SLP168 T02500217

시각: 01:05 (05:05 UTC)

예보

예보는 5 시간 38분 전, 23:27시(UTC)에 발표되었습니다.
예보 대상 시간: 25일 00시부터 25일 24시까지 (UTC)
14kt
시정: 10km
고도 2200ft 상공 구름 조금
고도 7000ft 상공 구름 보통
고도 10000ft 상공 구름 보통
시계 내 소나기
25일 0600시부터 (UTC)
동남동3kt
시정: 10km
고도 2600ft 상공 구름 보통
시계 내 소나기
25일 1400시부터 (UTC)
14kt
시정: 10km
고도 3000ft 상공 구름 보통
25일 2200시부터 (UTC)
11kt
시정: 10km
고도 2600ft 상공 구름 보통

TAF: TJSJ 242327Z 2500/2524 08014KT P6SM VCSH FEW022 SCT070 SCT100 FM250600 11003KT P6SM VCSH SCT026 FM251400 08014KT P6SM SCT030 FM252200 10011KT P6SM SCT026

4,000개 이상의 공항 관측 자료 및 예보 (METAR 및 TAF 보고).

지도상에서 검색 가능한 기상관측소가 노란 점과 빨간 점으로 표시되어 있습니다.

기상관측소 명을 보려면 표시 위로 마우스를 이동하세요.

날씨 관측과 예보를 보려면 클릭하세요.

지도 변경 : 확대하려면 엑스 표시가 있는 녹색 버튼, 축소하려면 빼기 표시가 있는 녹색 버튼, 다음 페이지의 지도를 보려면 녹색 화살표를 클릭하세요.


METAR-TAF: